Tiempo atmosférico en la estación meteorológica de Carballiño, O, Ourense (400 m.)



Fecha
DESCASC
Temp. máxima en grados centígrados (hora)
DESCASC
Temp. mínima en grados centígrados (hora)
DESCASC
Temp. media en grados centígrados
DESCASC
Racha de viento máxima en m/sg (hora)
DESCASC
Velocidad máxima media en intervalos de 10 minutos(hora)
DESCASC
Precipitaciones diarias en mm
DESCASC
Precipitaciones de 00:00 a 06:00 en mm
DESCASC
Precipitaciones de 06:00 a 12:00 en mm
DESCASC
Precipitaciones de 12:00 a 18:00 en mm
DESCASC
Precipitaciones de 18:00 a 24:00 en mm
DESCASC
05-04-2020 15.4 (00:10) 9.8 (23:59) 12.6 7.78 (01:10) 1.67 (01:20) 30.1 1.4 13.1 14.6 1
04-04-2020 21 (15:50) 4 (08:30) 12.5 9.17 (14:40) 2.5 (14:30) 0 0 0 0 0
03-04-2020 22.1 (17:50) 0.6 (08:30) 11.4 5.28 (16:50) 2.22 (20:30) 0 0 0 0 0
02-04-2020 19.4 (16:20) 7.2 (00:00) 13.3 8.33 (15:30) 3.61 (15:10) 0 0 0 0 0
01-04-2020 16.3 (15:40) 4.6 (00:00) 10.4 4.17 (20:30) 1.39 (20:30) 1.5 1.5 0 0 0
31-03-2020 7.1 (19:40) 2.6 (00:00) 4.8 12.22 (00:10) 5.28 (00:40) 3.3 0 0 2.5 0.8
30-03-2020 10.8 (15:50) 3.7 (00:00) 7.3 12.22 (18:50) 5.56 (18:50) 0 0 0 0 0
29-03-2020 21.3 (16:40) 1.2 (00:00) 11.2 6.67 (18:30) 3.06 (18:30) 0 0 0 0 0
28-03-2020 20.4 (17:00) 1.1 (00:00) 10.7 5 (16:20) 1.94 (20:40) 0 0 0 0 0
27-03-2020 17.7 (16:50) -1 (-00:0) 8.4 7.5 (15:20) 2.22 (10:20) 0 0 0 0 0
26-03-2020 19.9 (15:20) 0 (00:00) 9.9 7.5 (16:00) 2.78 (14:40) 0 0 0 0 0
25-03-2020 22.7 (16:20) 4.8 (00:00) 13.8 10 (17:00) 4.17 (17:00) 0 0 0 0 0
24-03-2020 23.3 (17:10) 3 (00:00) 13.1 5 (12:20) 1.11 (12:20) 0 0 0 0 0
23-03-2020 20.8 (17:00) 3.9 (00:00) 12.3 5.28 (20:10) 2.22 (18:50) 0 0 0 0 0
22-03-2020 18.1 (17:50) 8.8 (23:59) 13.5 6.67 (19:10) 2.5 (20:30) 0 0 0 0 0
21-03-2020 16.1 (16:40) 10 (00:00) 13.1 6.67 (21:20) 2.22 (21:10) 9.8 1.2 0 0.1 8.5
20-03-2020 15.2 (13:50) 10.5 (00:00) 12.8 3.61 (00:10) 0.83 (00:10) 19.5 10.1 2.9 3.8 2.7
19-03-2020 22.6 (16:10) 6.7 (00:00) 14.7 4.72 (18:40) 1.94 (23:40) 15.2 0 0 0 15.2
18-03-2020 24.1 (17:10) 3.6 (00:00) 13.9 3.33 (14:40) 1.39 (23:40) 0 0 0 0 0
17-03-2020 21.4 (17:00) 1.2 (00:00) 11.3 7.22 (14:30) 3.06 (16:10) 0 0 0 0 0
16-03-2020 13.5 (14:30) 1.2 (00:00) 7.4 16.11 (14:50) 5 (14:50) 0 0 0 0 0
15-03-2020 12.4 (12:10) 1 (00:00) 6.7 8.61 (14:00) 3.89 (13:50) 4.2 0 0 3.1 1.1
14-03-2020 20.6 (17:40) 1.6 (00:00) 11.1 3.06 (12:30) 1.11 (07:50) 0 0 0 0 0
13-03-2020 17.3 (15:30) 6 (23:59) 11.6 6.94 (16:20) 3.61 (16:20) 0 0 0 0 0
12-03-2020 19 (14:00) 8 (00:00) 13.5 9.17 (18:30) 3.89 (19:10) 0 0 0 0 0
11-03-2020 23.5 (16:20) 4 (00:00) 13.8 5.56 (15:00) 1.94 (18:00) 0 0 0 0 0
10-03-2020 21.3 (15:50) 2.7 (00:00) 12 6.11 (16:00) 2.22 (16:50) 0 0 0 0 0

Gráficas

Temp. máximas Temp. mínimas Temp. medias Precipitaciones Rachas de viento máximas Velocidades máximas media en intervalos de 10 minutos

Datos horarios

Fecha y hora oficial Temperatura (ºC) Velocidad del viento (km/h) Dirección del viento Racha (km/h) Dirección de racha Precipitación (mm) Presión (hPa) Tendencia (hPa) Humedad (%)
2020-04-08 23:00:00 16.2 0 Calma 4 Oeste 0 -- -- 82
2020-04-08 22:00:00 16.9 0 Calma 5 Oeste 0 -- -- 76
2020-04-08 21:00:00 17.8 0 Calma 9 Oeste 0 -- -- 70
2020-04-08 20:00:00 18.7 0 Calma 10 Oeste 0 -- -- 64
2020-04-08 19:00:00 19.8 0 Calma 16 Noroeste 0 -- -- 57
2020-04-08 18:00:00 21.2 5 Oeste 18 Oeste 0 -- -- 51
2020-04-08 17:00:00 22.4 5 Oeste 17 Noroeste 0 -- -- 48
2020-04-08 16:00:00 21.9 4 Oeste 15 Oeste 0 -- -- 50
2020-04-08 15:00:00 21.5 3 Sur 13 Sur 0 -- -- 50
2020-04-08 14:00:00 20.4 2 Sudeste 11 Sudeste 0 -- -- 54
2020-04-08 13:00:00 19.1 0 Calma 9 Este 0 -- -- 61
2020-04-08 12:00:00 15.6 2 Este 8 Este 0 -- -- 79
2020-04-08 11:00:00 13.1 0 Calma 2 Noroeste 0 -- -- 96
2020-04-08 10:00:00 9.6 0 Calma 2 Noroeste 0 -- -- 97
2020-04-08 09:00:00 7.6 0 Calma -- -- 0 -- -- 96
2020-04-08 08:00:00 6.8 0 Calma -- -- 0 -- -- 96
2020-04-08 07:00:00 7.7 0 Calma -- -- 0 -- -- 96
2020-04-08 06:00:00 8.4 0 Calma 2 Nordeste 0 -- -- 96
2020-04-08 05:00:00 9.1 0 Calma 5 Nordeste 0 -- -- 95
2020-04-08 04:00:00 9.2 0 Calma 6 Nordeste 0 -- -- 93
2020-04-08 03:00:00 10 0 Calma -- -- 0 -- -- 93
2020-04-08 02:00:00 10.3 0 Calma -- -- 0 -- -- 93
2020-04-08 01:00:00 11 0 Calma -- -- 0 -- -- 91
2020-04-08 00:00:00 12.2 0 Calma 3 Nordeste 0 -- -- 88
2020-04-07 23:00:00 13.6 0 Calma -- -- 0 -- -- 82
2020-04-07 22:00:00 15.3 0 Calma 4 Oeste 0 -- -- 74
2020-04-07 21:00:00 17.5 0 Calma 10 Oeste 0 -- -- 64
2020-04-07 20:00:00 19.9 4 Oeste 16 Noroeste 0 -- -- 57
2020-04-07 19:00:00 20.6 6 Oeste 19 Oeste 0 -- -- 54
2020-04-07 18:00:00 20.7 6 Oeste 23 Noroeste 0 -- -- 55
2020-04-07 17:00:00 19.6 9 Oeste 16 Oeste 0 -- -- 56
2020-04-07 16:00:00 20.8 0 Calma 17 Sudoeste 0 -- -- 55
2020-04-07 15:00:00 18.6 0 Calma 5 Oeste 0 -- -- 66
2020-04-07 14:00:00 17.1 0 Calma 9 Oeste 0 -- -- 73
2020-04-07 13:00:00 17.5 0 Calma 12 Este 0 -- -- 71
2020-04-07 12:00:00 15.7 3 Sur 11 Sudeste 0 -- -- 82
2020-04-07 11:00:00 13.3 0 Calma -- -- 0 -- -- 97
2020-04-07 10:00:00 11.6 0 Calma 0 Calma 0 -- -- 97
2020-04-07 09:00:00 10.1 0 Calma 4 Nordeste 0.2 -- -- 97
2020-04-07 08:00:00 9.3 0 Calma -- -- 0 -- -- 96
2020-04-07 07:00:00 9 0 Calma -- -- 0 -- -- 96
2020-04-07 06:00:00 8.8 0 Calma 6 Nordeste 0 -- -- 95
2020-04-07 05:00:00 9 2 Nordeste 9 Nordeste 0 -- -- 95
2020-04-07 04:00:00 9.3 0 Calma 5 Nordeste 0 -- -- 95
2020-04-07 03:00:00 9.7 0 Calma 9 Nordeste 0 -- -- 95
2020-04-07 02:00:00 10.1 0 Calma 9 Nordeste 0 -- -- 94
2020-04-07 01:00:00 10.7 3 Nordeste 7 Nordeste 0 -- -- 92
2020-04-07 00:00:00 11.6 0 Calma -- -- 0.6 -- -- 89
2020-04-06 23:00:00 12.4 0 Calma 3 Nordeste 0.1 -- -- 83
2020-04-06 22:00:00 12.9 0 Calma 8 Nordeste 0 -- -- 78
2020-04-06 21:00:00 13.7 0 Calma 9 Nordeste 0 -- -- 74
2020-04-06 20:00:00 14.3 2 Este 13 Nordeste 0 -- -- 70
2020-04-06 19:00:00 15.1 0 Calma 8 Este 0.1 -- -- 67
2020-04-06 18:00:00 14.9 0 Calma -- -- 0 -- -- 66
2020-04-06 17:00:00 14.9 0 Calma 5 Este 0 -- -- 69
2020-04-06 16:00:00 15.1 0 Calma 7 Sudeste 0 -- -- 67
2020-04-06 15:00:00 14.6 0 Calma -- -- 0 -- -- 75
2020-04-06 14:00:00 13.4 0 Calma 5 Sudoeste 0 -- -- 87
2020-04-06 13:00:00 12.6 0 Calma 12 Sudoeste 0 -- -- 88
2020-04-06 12:00:00 12.5 0 Calma 7 Nordeste 0 -- -- 87
2020-04-06 11:00:00 11.4 0 Calma 9 Nordeste 0 -- -- 98
2020-04-06 10:00:00 9.2 0 Calma -- -- 0 -- -- 98
2020-04-06 09:00:00 8.2 0 Calma -- -- 0 -- -- 97
2020-04-06 08:00:00 7.8 0 Calma -- -- 0 -- -- 97
2020-04-06 07:00:00 7.8 0 Calma -- -- 0 -- -- 97
2020-04-06 06:00:00 7.7 0 Calma -- -- 0 -- -- 97
2020-04-06 05:00:00 7.6 0 Calma -- -- 0 -- -- 97
2020-04-06 04:00:00 7.8 0 Calma 4 Nordeste 0 -- -- 96
2020-04-06 03:00:00 8 0 Calma 5 Nordeste 0 -- -- 96
2020-04-06 02:00:00 7.9 0 Calma -- -- 0 -- -- 95
2020-04-06 01:00:00 9.1 0 Calma 4 Sudeste 0 -- -- 95
2020-04-06 00:00:00 9.9 0 Calma 4 Este 0 -- -- 95
2020-04-05 23:00:00 11 0 Calma 8 Noroeste 0 -- -- 94
2020-04-05 22:00:00 12.4 0 Calma 7 Oeste 0 -- -- 95
2020-04-05 21:00:00 13.2 0 Calma 5 Oeste 0 -- -- 95
2020-04-05 20:00:00 13.3 0 Calma 7 Oeste 0.4 -- -- 96
2020-04-05 19:00:00 13.8 0 Calma 12 Sur 0.6 -- -- 96
2020-04-05 18:00:00 13.3 2 Sur 20 Sudoeste 3 -- -- 96
2020-04-05 17:00:00 13.7 2 Sur 18 Sur 2.5 -- -- 96
2020-04-05 16:00:00 13.3 2 Sudeste 12 Este 2.4 -- -- 96
2020-04-05 15:00:00 13 0 Calma 11 Sudeste 2 -- -- 96
2020-04-05 14:00:00 13 0 Calma 7 Este 3.4 -- -- 96
2020-04-05 13:00:00 12.6 0 Calma 13 Sudeste 1.3 -- -- 96
2020-04-05 12:00:00 12.1 0 Calma 11 Sudeste 3.7 -- -- 96
2020-04-05 11:00:00 11.7 0 Calma 9 Sur 3.2 -- -- 96
2020-04-05 10:00:00 11.3 0 Calma 10 Sur 4.3 -- -- 95
2020-04-05 09:00:00 11.3 0 Calma 12 Este 1.6 -- -- 93
2020-04-05 08:00:00 11.3 2 Sudeste 18 Sudeste 0.2 -- -- 91
2020-04-05 07:00:00 11.5 4 Sudeste 15 Sudeste 0.1 -- -- 89
2020-04-05 06:00:00 11.7 2 Sudeste 15 Sudeste 1 -- -- 87
2020-04-05 05:00:00 12.1 4 Sudeste 13 Sur 0.2 -- -- 83
2020-04-05 04:00:00 13.1 4 Sudeste 16 Sudeste 0.2 -- -- 70
2020-04-05 03:00:00 14.3 2 Sudeste 19 Este 0 -- -- 60
2020-04-05 02:00:00 14.8 4 Sudeste 28 Sur 0 -- -- 58
2020-04-05 01:00:00 15.1 5 Sur 20 Sudeste 0 -- -- 55
2020-04-05 00:00:00 15.3 4 Sudeste 22 Sur 0 -- -- 53
2020-04-04 23:00:00 15.9 4 Sur 25 Sur 0 -- -- 49
2020-04-04 22:00:00 16.4 4 Sur 21 Sudeste 0 -- -- 45
2020-04-04 21:00:00 16.9 3 Sur 21 Sur 0 -- -- 42
2020-04-04 20:00:00 17.7 4 Sur 26 Sur 0 -- -- 40
2020-04-04 19:00:00 18.4 3 Sur 23 Sudeste 0 -- -- 44
2020-04-04 18:00:00 19.2 3 Sur 22 Sudeste 0 -- -- 43
2020-04-04 17:00:00 18.6 5 Sur 27 Sudeste 0 -- -- 41
2020-04-04 16:00:00 20 4 Sur 33 Sudeste 0 -- -- 39
2020-04-04 15:00:00 19.6 7 Sur 33 Sudeste 0 -- -- 41
2020-04-04 14:00:00 18.4 6 Sudeste 26 Sudeste 0 -- -- 42
2020-04-04 13:00:00 17.7 4 Sudeste 19 Sudeste 0 -- -- 45
2020-04-04 12:00:00 16.5 2 Sudeste 19 Sudeste 0 -- -- 51
2020-04-04 11:00:00 14.1 3 Este 11 Este 0 -- -- 60
2020-04-04 10:00:00 6.8 0 Calma 2 Nordeste 0 -- -- 93
2020-04-04 09:00:00 4.3 0 Calma -- -- 0 -- -- 92
2020-04-04 08:00:00 4.5 0 Calma 7 Nordeste 0 -- -- 90
2020-04-04 07:00:00 5.3 0 Calma 8 Nordeste 0 -- -- 90
2020-04-04 06:00:00 4.9 0 Calma -- -- 0 -- -- 89
2020-04-04 05:00:00 5.7 0 Calma 3 Este 0 -- -- 86
2020-04-04 04:00:00 6.5 0 Calma 5 Norte 0 -- -- 85
2020-04-04 03:00:00 7.3 0 Calma -- -- 0 -- -- 83
2020-04-04 02:00:00 8.3 0 Calma -- -- 0 -- -- 81
2020-04-04 01:00:00 9.9 0 Calma 14 Nordeste 0 -- -- 78
2020-04-04 00:00:00 11.2 0 Calma -- -- 0 -- -- 74
2020-04-03 23:00:00 13.2 0 Calma 9 Nordeste 0 -- -- 64
2020-04-03 22:00:00 15.3 0 Calma 13 Norte 0 -- -- 55
2020-04-03 21:00:00 17.2 4 Noroeste 18 Norte 0 -- -- 46
2020-04-03 20:00:00 20.4 0 Calma 8 Oeste 0 -- -- 38
2020-04-03 19:00:00 21.4 0 Calma 10 Sudeste 0 -- -- 36
2020-04-03 18:00:00 21.7 0 Calma 19 Noroeste 0 -- -- 36
2020-04-03 17:00:00 21.1 0 Calma 19 Oeste 0 -- -- 38
2020-04-03 16:00:00 20.7 4 Sur 14 Sudoeste 0 -- -- 38
2020-04-03 15:00:00 19 4 Sur 14 Sur 0 -- -- 43
2020-04-03 14:00:00 17.5 4 Sudoeste 12 Sudeste 0 -- -- 48
2020-04-03 13:00:00 15.6 3 Sudeste 14 Este 0 -- -- 56
2020-04-03 12:00:00 12.2 0 Calma -- -- 0 -- -- 69
2020-04-03 11:00:00 9.7 0 Calma -- -- 0 -- -- 87
2020-04-03 10:00:00 3.3 0 Calma -- -- 0 -- -- 98
2020-04-03 09:00:00 0.7 0 Calma -- -- 0 -- -- 96
2020-04-03 08:00:00 0.7 0 Calma -- -- 0 -- -- 95
2020-04-03 07:00:00 1.4 0 Calma -- -- 0 -- -- 95
2020-04-03 06:00:00 1.9 0 Calma -- -- 0 -- -- 95
2020-04-03 05:00:00 2.3 0 Calma -- -- 0 -- -- 93
2020-04-03 04:00:00 3 0 Calma -- -- 0 -- -- 92
2020-04-03 03:00:00 4.1 0 Calma -- -- 0 -- -- 91
2020-04-03 02:00:00 4.9 0 Calma -- -- 0 -- -- 89
2020-04-03 01:00:00 6 0 Calma -- -- 0 -- -- 87
2020-04-03 00:00:00 7.3 0 Calma -- -- 0 -- -- 82
2020-04-02 23:00:00 8.9 0 Calma -- -- 0 -- -- 75
2020-04-02 22:00:00 10.6 0 Calma 13 Nordeste 0 -- -- 68
2020-04-02 21:00:00 12.8 4 Nordeste 18 Nordeste 0 -- -- 58
2020-04-02 20:00:00 16.2 5 Norte 21 Norte 0 -- -- 48
2020-04-02 19:00:00 17.9 8 Norte 23 Sudoeste 0 -- -- 46
2020-04-02 18:00:00 17.7 7 Norte 22 Noroeste 0 -- -- 46
2020-04-02 17:00:00 18.3 4 Norte 23 Nordeste 0 -- -- 45
2020-04-02 16:00:00 18.3 10 Nordeste 30 Nordeste 0 -- -- 45
2020-04-02 15:00:00 18.1 6 Nordeste 29 Nordeste 0 -- -- 46
2020-04-02 14:00:00 16.8 9 Nordeste 26 Nordeste 0 -- -- 49
2020-04-02 13:00:00 15.2 6 Este 25 Nordeste 0 -- -- 54
2020-04-02 12:00:00 13.7 6 Nordeste 20 Nordeste 0 -- -- 64
2020-04-02 11:00:00 12.1 2 Nordeste 13 Nordeste 0 -- -- 79
2020-04-02 10:00:00 10.1 6 Nordeste 13 Nordeste 0 -- -- 92
2020-04-02 09:00:00 8.2 0 Calma -- -- 0 -- -- 95
2020-04-02 08:00:00 7.7 0 Calma -- -- 0 -- -- 94
2020-04-02 07:00:00 7.9 0 Calma -- -- 0 -- -- 93
2020-04-02 06:00:00 8.6 0 Calma 10 Nordeste 0 -- -- 93
2020-04-02 05:00:00 8.4 0 Calma 7 Nordeste 0 -- -- 95
2020-04-02 04:00:00 8 0 Calma -- -- 0 -- -- 94
2020-04-02 03:00:00 7.7 0 Calma -- -- 0 -- -- 94
2020-04-02 02:00:00 7.4 0 Calma -- -- 0 -- -- 92
2020-04-02 01:00:00 7.7 0 Calma 8 Este 0 -- -- 90
2020-04-02 00:00:00 9.2 0 Calma -- -- 0 -- -- 86
2020-04-01 23:00:00 10.2 0 Calma -- -- 0 -- -- 80
2020-04-01 22:00:00 10.6 0 Calma 12 Nordeste 0 -- -- 75
2020-04-01 21:00:00 11.2 4 Norte 15 Norte 0 -- -- 66
2020-04-01 20:00:00 13 0 Calma 7 Este 0 -- -- 56
2020-04-01 19:00:00 12 0 Calma 9 Sur 0 -- -- 55
2020-04-01 18:00:00 12.8 0 Calma 9 Sur 0 -- -- 51
2020-04-01 17:00:00 14.1 0 Calma 12 Sur 0 -- -- 52
2020-04-01 16:00:00 15 3 Sudeste 14 Este 0 -- -- 45
2020-04-01 15:00:00 13.9 0 Calma 13 Este 0 -- -- 53
2020-04-01 14:00:00 12.4 0 Calma 8 Sudoeste 0 -- -- 58
2020-04-01 13:00:00 11.2 0 Calma 6 Noroeste 0 -- -- 77
2020-04-01 12:00:00 7.7 0 Calma -- -- 0 -- -- 91
2020-04-01 11:00:00 6.5 0 Calma 5 Sudeste 0 -- -- 98
2020-04-01 10:00:00 5 0 Calma -- -- 0 -- -- 98
2020-04-01 09:00:00 4.9 0 Calma 8 Nordeste 0 -- -- 98
2020-04-01 08:00:00 5.1 0 Calma -- -- 0 -- -- 98
2020-04-01 07:00:00 5.2 0 Calma -- -- 0 -- -- 98
2020-04-01 06:00:00 6 0 Calma -- -- 0 -- -- 98
2020-04-01 05:00:00 6 0 Calma 0 Calma 0 -- -- 98
2020-04-01 04:00:00 5.9 0 Calma 12 Sur 0 -- -- 98
2020-04-01 03:00:00 6.1 0 Calma 7 Nordeste 0.3 -- -- 98
2020-04-01 02:00:00 6 0 Calma 3 Nordeste 1.2 -- -- 97
2020-04-01 01:00:00 6 0 Calma 6 Sur 0 -- -- 97
2020-04-01 00:00:00 5.8 0 Calma -- -- 0 -- -- 97
2020-03-31 23:00:00 5.9 0 Calma -- -- 0 -- -- 96
2020-03-31 22:00:00 6.1 0 Calma -- -- 0 -- -- 96
2020-03-31 21:00:00 6.3 0 Calma -- -- 0 -- -- 95
2020-03-31 20:00:00 6.8 0 Calma -- -- 0.1 -- -- 95
2020-03-31 19:00:00 6.5 0 Calma 5 Sur 0.7 -- -- 94
2020-03-31 18:00:00 6.9 0 Calma 4 Norte 0.5 -- -- 93
2020-03-31 17:00:00 6 0 Calma 6 Norte 1 -- -- 91
2020-03-31 16:00:00 5.8 0 Calma 14 Sudeste 0.6 -- -- 86
2020-03-31 15:00:00 6 4 Sudeste 15 Sudeste 0.1 -- -- 84
2020-03-31 14:00:00 5 2 Oeste 11 Oeste 0 -- -- 92
2020-03-31 13:00:00 3.9 0 Calma 26 Este 0.3 -- -- 86
2020-03-31 12:00:00 5.4 7 Este 27 Nordeste 0 -- -- 64
2020-03-31 11:00:00 5.9 6 Este 19 Nordeste 0 -- -- 64
2020-03-31 10:00:00 4.1 3 Nordeste 24 Nordeste 0 -- -- 73
2020-03-31 09:00:00 3.1 8 Nordeste 21 Nordeste 0 -- -- 75
2020-03-31 08:00:00 3 9 Nordeste 23 Nordeste 0 -- -- 74
2020-03-31 07:00:00 2.9 6 Nordeste 23 Nordeste 0 -- -- 75
2020-03-31 06:00:00 2.7 6 Nordeste 24 Norte 0 -- -- 74
2020-03-31 05:00:00 3 12 Nordeste 28 Nordeste 0 -- -- 74
2020-03-31 04:00:00 3.1 11 Nordeste 26 Nordeste 0 -- -- 74
2020-03-31 03:00:00 3.3 12 Nordeste 27 Nordeste 0 -- -- 73
2020-03-31 02:00:00 3.4 12 Nordeste 34 Nordeste 0 -- -- 73
2020-03-31 01:00:00 3.6 13 Nordeste 44 Nordeste 0 -- -- 70
2020-03-31 00:00:00 3.7 13 Nordeste 42 Nordeste 0 -- -- 64
2020-03-30 23:00:00 4.1 12 Nordeste 35 Nordeste 0 -- -- 60
2020-03-30 22:00:00 4.7 11 Nordeste 37 Nordeste 0 -- -- 58
2020-03-30 21:00:00 5.9 15 Nordeste 42 Norte 0 -- -- 53
2020-03-30 20:00:00 8.1 15 Nordeste 42 Nordeste 0 -- -- 47
2020-03-30 19:00:00 9.1 14 Nordeste 44 Nordeste 0 -- -- 48
2020-03-30 18:00:00 10.7 14 Nordeste 40 Nordeste 0 -- -- 47
2020-03-30 17:00:00 10.2 11 Nordeste 31 Este 0 -- -- 48
2020-03-30 16:00:00 10.2 12 Nordeste 31 Nordeste 0 -- -- 50
2020-03-30 15:00:00 10.1 8 Nordeste 30 Nordeste 0 -- -- 52
2020-03-30 14:00:00 8.2 2 Nordeste 15 Nordeste 0 -- -- 59
2020-03-30 13:00:00 7.4 4 Nordeste 20 Sudeste 0 -- -- 61
2020-03-30 12:00:00 6.6 0 Calma 17 Este 0 -- -- 64
2020-03-30 11:00:00 6.5 8 Nordeste 22 Nordeste 0 -- -- 66
2020-03-30 10:00:00 6.5 4 Nordeste 23 Este 0 -- -- 66
2020-03-30 09:00:00 6.5 7 Nordeste 24 Nordeste 0 -- -- 66
2020-03-30 08:00:00 6.7 7 Nordeste 17 Nordeste 0 -- -- 70
2020-03-30 07:00:00 6.8 5 Nordeste 17 Norte 0 -- -- 73
2020-03-30 06:00:00 6.9 5 Nordeste 17 Nordeste 0 -- -- 76
2020-03-30 05:00:00 7 5 Nordeste 19 Nordeste 0 -- -- 78
2020-03-30 04:00:00 6.2 0 Calma 6 Nordeste 0 -- -- 83
2020-03-30 03:00:00 7.3 0 Calma 11 Norte 0 -- -- 81
2020-03-30 02:00:00 7.3 2 Norte 16 Norte 0 -- -- 82
2020-03-30 01:00:00 7.1 0 Calma 7 Sudoeste 0 -- -- 81
2020-03-30 00:00:00 8.3 0 Calma -- -- 0 -- -- 76
2020-03-29 23:00:00 9.5 0 Calma 9 Norte 0 -- -- 68
2020-03-29 22:00:00 11.2 2 Nordeste 15 Norte 0 -- -- 62
2020-03-29 21:00:00 12.7 3 Norte 16 Norte 0 -- -- 58
2020-03-29 20:00:00 14.7 7 Norte 22 Norte 0 -- -- 55
2020-03-29 19:00:00 16.4 7 Nordeste 24 Nordeste 0 -- -- 48
2020-03-29 18:00:00 18.8 0 Calma 13 Este 0 -- -- 38
2020-03-29 17:00:00 19.9 4 Nordeste 21 Nordeste 0 -- -- 36
2020-03-29 16:00:00 20.5 3 Nordeste 13 Nordeste 0 -- -- 34
2020-03-29 15:00:00 19.1 4 Este 12 Nordeste 0 -- -- 39
2020-03-29 14:00:00 16.1 2 Este 12 Este 0 -- -- 50
2020-03-29 13:00:00 15.2 2 Este 11 Sudeste 0 -- -- 57
2020-03-29 12:00:00 11 0 Calma 8 Este 0 -- -- 73
2020-03-29 11:00:00 8.8 0 Calma -- -- 0 -- -- 84
2020-03-29 10:00:00 3.2 0 Calma -- -- 0 -- -- 98
2020-03-29 09:00:00 1.3 0 Calma -- -- 0 -- -- 96
2020-03-29 08:00:00 1.4 0 Calma -- -- 0 -- -- 95
2020-03-29 07:00:00 1.8 0 Calma -- -- 0 -- -- 93
2020-03-29 06:00:00 2.5 0 Calma -- -- 0 -- -- 92
2020-03-29 05:00:00 3.2 0 Calma -- -- 0 -- -- 91
2020-03-29 03:00:00 5 0 Calma -- -- 0 -- -- 85
2020-03-29 01:00:00 6 0 Calma -- -- 0 -- -- 82
2020-03-29 00:00:00 7.3 0 Calma -- -- 0 -- -- 75
2020-03-28 23:00:00 8.8 0 Calma 0 Calma 0 -- -- 69
2020-03-28 22:00:00 10.4 0 Calma 6 Sudeste 0 -- -- 62
2020-03-28 21:00:00 12.4 2 Oeste 18 Oeste 0 -- -- 53
2020-03-28 20:00:00 15.1 6 Oeste 15 Oeste 0 -- -- 38
2020-03-28 19:00:00 18.6 3 Nordeste 10 Este 0 -- -- 31
2020-03-28 18:00:00 18.8 3 Este 13 Este 0 -- -- 30
2020-03-28 17:00:00 19.2 2 Nordeste 18 Este 0 -- -- 30
2020-03-28 16:00:00 19.8 3 Nordeste 14 Este 0 -- -- 31
2020-03-28 15:00:00 18.6 4 Este 15 Nordeste 0 -- -- 32
2020-03-28 14:00:00 16.6 2 Nordeste 11 Nordeste 0 -- -- 37
2020-03-28 13:00:00 13.4 0 Calma 5 Sudoeste 0 -- -- 54
2020-03-28 12:00:00 11.3 0 Calma 4 Sudoeste 0 -- -- 64
2020-03-28 11:00:00 8.7 0 Calma 4 Noroeste 0 -- -- 75
2020-03-28 10:00:00 5.1 0 Calma -- -- 0 -- -- 90
2020-03-28 09:00:00 2.5 0 Calma -- -- 0 -- -- 94
2020-03-28 08:00:00 1.5 0 Calma -- -- 0 -- -- 94
2020-03-28 07:00:00 1.2 0 Calma 3 Nordeste 0 -- -- 93
2020-03-28 06:00:00 1.3 0 Calma -- -- 0 -- -- 92
2020-03-28 05:00:00 1.4 0 Calma 3 Norte 0 -- -- 90
2020-03-28 04:00:00 1.5 0 Calma 0 Calma 0 -- -- 88
2020-03-28 03:00:00 1.7 0 Calma -- -- 0 -- -- 84
2020-03-28 02:00:00 2.6 0 Calma 0 Calma 0 -- -- 79
2020-03-28 01:00:00 3.9 0 Calma 3 Noroeste 0 -- -- 70
2020-03-28 00:00:00 5.2 0 Calma 6 Este 0 -- -- 64
2020-03-27 23:00:00 6.5 0 Calma 9 Nordeste 0 -- -- 59
2020-03-27 22:00:00 8.5 0 Calma 0 Calma 0 -- -- 50
2020-03-27 21:00:00 11.8 0 Calma 7 Sudeste 0 -- -- 35
2020-03-27 20:00:00 13.8 0 Calma 10 Sur 0 -- -- 33
2020-03-27 19:00:00 16.1 2 Sur 16 Sudoeste 0 -- -- 32
2020-03-27 18:00:00 16.9 0 Calma 13 Sudeste 0 -- -- 32
2020-03-27 17:00:00 17.3 2 Sur 14 Este 0 -- -- 32
2020-03-27 16:00:00 16.9 0 Calma 27 Este 0 -- -- 34
2020-03-27 15:00:00 16.4 4 Sur 17 Sudeste 0 -- -- 36
2020-03-27 14:00:00 14.5 5 Sudeste 21 Este 0 -- -- 39
2020-03-27 13:00:00 13.4 5 Sudeste 20 Sudeste 0 -- -- 46
2020-03-27 12:00:00 11.1 4 Sudeste 15 Sudeste 0 -- -- 49
2020-03-27 11:00:00 9.2 0 Calma 17 Sudeste 0 -- -- 59
2020-03-27 10:00:00 7.6 5 Este 15 Este 0 -- -- 69
2020-03-27 09:00:00 0.8 0 Calma -- -- 0 -- -- 98
2020-03-27 08:00:00 -0.9 0 Calma -- -- 0 -- -- 97
2020-03-27 07:00:00 -0.8 0 Calma -- -- 0 -- -- 96
2020-03-27 06:00:00 -0.4 0 Calma -- -- 0 -- -- 96
2020-03-27 05:00:00 0 0 Calma -- -- 0 -- -- 95
2020-03-27 04:00:00 0.8 0 Calma -- -- 0 -- -- 93
2020-03-27 03:00:00 1.5 0 Calma -- -- 0 -- -- 92
2020-03-27 02:00:00 2.6 0 Calma -- -- 0 -- -- 89
2020-03-27 01:00:00 3.7 0 Calma 2 Nordeste 0 -- -- 84
2020-03-27 00:00:00 5.2 0 Calma 14 Norte 0 -- -- 79
2020-03-26 23:00:00 6.4 4 Norte 16 Norte 0 -- -- 75
2020-03-26 22:00:00 7.9 6 Norte 18 Norte 0 -- -- 69
2020-03-26 21:00:00 10.2 0 Calma 8 Nordeste 0 -- -- 53
2020-03-26 20:00:00 12.7 4 Norte 19 Nordeste 0 -- -- 39
2020-03-26 19:00:00 17.1 5 Norte 21 Nordeste 0 -- -- 35
2020-03-26 18:00:00 18.9 8 Norte 21 Norte 0 -- -- 37
2020-03-26 17:00:00 19.7 6 Norte 26 Noroeste 0 -- -- 34
2020-03-26 16:00:00 19.4 7 Norte 27 Norte 0 -- -- 32
2020-03-26 15:00:00 19.5 10 Nordeste 27 Norte 0 -- -- 26
2020-03-26 14:00:00 18.3 9 Norte 22 Norte 0 -- -- 30
2020-03-26 13:00:00 15.7 0 Calma 10 Sudoeste 0 -- -- 50
2020-03-26 12:00:00 13.3 0 Calma 9 Oeste 0 -- -- 60
2020-03-26 11:00:00 9.5 0 Calma 8 Sudeste 0 -- -- 71
2020-03-26 10:00:00 8 0 Calma -- -- 0 -- -- 77
2020-03-26 09:00:00 1.2 0 Calma -- -- 0 -- -- 94
2020-03-26 08:00:00 0.1 0 Calma -- -- 0 -- -- 93
2020-03-26 07:00:00 0.8 0 Calma 5 Nordeste 0 -- -- 91
2020-03-26 06:00:00 2.1 0 Calma 8 Nordeste 0 -- -- 92
2020-03-26 05:00:00 3.3 0 Calma 8 Nordeste 0 -- -- 94
2020-03-26 04:00:00 4.1 0 Calma -- -- 0 -- -- 93
2020-03-26 03:00:00 5.2 0 Calma -- -- 0 -- -- 92
2020-03-26 02:00:00 6.4 0 Calma 5 Sudeste 0 -- -- 91
2020-03-26 01:00:00 7.4 0 Calma -- -- 0 -- -- 88
2020-03-26 00:00:00 9.2 0 Calma 6 Oeste 0 -- -- 83
2020-03-25 23:00:00 10.9 4 Oeste 10 Nordeste 0 -- -- 79
2020-03-25 22:00:00 11.9 0 Calma 10 Noroeste 0 -- -- 71
2020-03-25 21:00:00 13.8 0 Calma 13 Nordeste 0 -- -- 64
2020-03-25 20:00:00 15.3 0 Calma 18 Noroeste 0 -- -- 62
2020-03-25 19:00:00 16.9 7 Oeste 26 Noroeste 0 -- -- 55
2020-03-25 18:00:00 19 9 Noroeste 30 Noroeste 0 -- -- 50
2020-03-25 17:00:00 19 15 Noroeste 36 Oeste 0 -- -- 45
2020-03-25 16:00:00 21.9 7 Norte 24 Noroeste 0 -- -- 36
2020-03-25 15:00:00 22.3 9 Norte 22 Norte 0 -- -- 37
2020-03-25 14:00:00 20.3 4 Noroeste 18 Oeste 0 -- -- 44
2020-03-25 13:00:00 18.2 0 Calma 9 Sur 0 -- -- 59
2020-03-25 12:00:00 17.9 0 Calma 6 Sur 0 -- -- 58
2020-03-25 11:00:00 14.1 0 Calma 0 Calma 0 -- -- 73
2020-03-25 10:00:00 10.9 0 Calma -- -- 0 -- -- 90
2020-03-25 09:00:00 6.6 0 Calma -- -- 0 -- -- 97
2020-03-25 08:00:00 4.9 0 Calma -- -- 0 -- -- 96
2020-03-25 07:00:00 5.4 0 Calma -- -- 0 -- -- 94
2020-03-25 06:00:00 5.5 0 Calma -- -- 0 -- -- 93
2020-03-25 05:00:00 6.2 0 Calma 2 Norte 0 -- -- 92
2020-03-25 04:00:00 6.9 0 Calma 8 Nordeste 0 -- -- 91
2020-03-25 03:00:00 7.4 0 Calma 5 Nordeste 0 -- -- 89
2020-03-25 02:00:00 8.4 0 Calma 7 Nordeste 0 -- -- 88
2020-03-25 01:00:00 9.3 0 Calma 7 Nordeste 0 -- -- 85
2020-03-25 00:00:00 10.3 0 Calma -- -- 0 -- -- 81
2020-03-24 23:00:00 12.1 0 Calma 5 Norte 0 -- -- 71
2020-03-24 22:00:00 14.3 0 Calma 6 Oeste 0 -- -- 62
2020-03-24 21:00:00 15.5 0 Calma 15 Noroeste 0 -- -- 60
2020-03-24 20:00:00 17.2 0 Calma 8 Noroeste 0 -- -- 51
2020-03-24 19:00:00 19.9 0 Calma 8 Oeste 0 -- -- 40
2020-03-24 18:00:00 21.5 0 Calma 12 Nordeste 0 -- -- 34
2020-03-24 17:00:00 22.7 0 Calma 10 Sur 0 -- -- 35
2020-03-24 16:00:00 20.6 2 Sudoeste 12 Norte 0 -- -- 40
2020-03-24 15:00:00 20.6 2 Sudeste 13 Sur 0 -- -- 39
2020-03-24 14:00:00 19.9 2 Sudoeste 12 Sur 0 -- -- 41
2020-03-24 13:00:00 18.8 0 Calma 18 Este 0 -- -- 44
2020-03-24 12:00:00 16.9 3 Sudeste 12 Este 0 -- -- 51
2020-03-24 11:00:00 13.5 0 Calma 9 Nordeste 0 -- -- 74
2020-03-24 10:00:00 9.5 0 Calma -- -- 0 -- -- 96
2020-03-24 09:00:00 4.6 0 Calma -- -- 0 -- -- 97
2020-03-24 08:00:00 3.3 0 Calma 8 Nordeste 0 -- -- 96
2020-03-24 07:00:00 3.1 0 Calma -- -- 0 -- -- 95
2020-03-24 06:00:00 3.6 0 Calma -- -- 0 -- -- 95
2020-03-24 05:00:00 4.2 0 Calma -- -- 0 -- -- 95
2020-03-24 04:00:00 4.8 0 Calma -- -- 0 -- -- 94
2020-03-24 03:00:00 5.3 0 Calma -- -- 0 -- -- 94
2020-03-24 02:00:00 6.1 0 Calma -- -- 0 -- -- 93
2020-03-24 01:00:00 6.8 0 Calma -- -- 0 -- -- 92
2020-03-24 00:00:00 7.8 0 Calma -- -- 0 -- -- 88
2020-03-23 23:00:00 9 0 Calma -- -- 0 -- -- 85
2020-03-23 22:00:00 10.1 0 Calma -- -- 0 -- -- 79
2020-03-23 21:00:00 11.7 0 Calma 19 Nordeste 0 -- -- 73
2020-03-23 20:00:00 13.6 8 Nordeste 19 Nordeste 0 -- -- 64
2020-03-23 19:00:00 17.1 8 Norte 19 Norte 0 -- -- 52
2020-03-23 18:00:00 20.2 2 Norte 14 Norte 0 -- -- 42
2020-03-23 17:00:00 20.8 0 Calma 13 Nordeste 0 -- -- 36
2020-03-23 16:00:00 20.2 2 Noroeste 12 Este 0 -- -- 38
2020-03-23 15:00:00 19.7 0 Calma 13 Nordeste 0 -- -- 41
2020-03-23 14:00:00 17.5 2 Este 14 Nordeste 0 -- -- 48
2020-03-23 13:00:00 16.8 0 Calma 6 Nordeste 0 -- -- 56
2020-03-23 12:00:00 14.8 0 Calma -- -- 0 -- -- 69
2020-03-23 11:00:00 11.7 0 Calma 4 Sudoeste 0 -- -- 81
2020-03-23 10:00:00 8.5 0 Calma -- -- 0 -- -- 97
2020-03-23 09:00:00 5.7 0 Calma -- -- 0 -- -- 97
2020-03-23 08:00:00 4.1 0 Calma -- -- 0 -- -- 95
2020-03-23 07:00:00 4 0 Calma -- -- 0 -- -- 95
2020-03-23 06:00:00 4.7 0 Calma -- -- 0 -- -- 94
2020-03-23 05:00:00 5.4 0 Calma -- -- 0 -- -- 94
2020-03-23 04:00:00 6.2 0 Calma -- -- 0 -- -- 94
2020-03-23 03:00:00 7.2 0 Calma -- -- 0 -- -- 93
2020-03-23 02:00:00 8.2 0 Calma -- -- 0 -- -- 93
2020-03-23 01:00:00 8.6 0 Calma -- -- 0 -- -- 91
2020-03-23 00:00:00 8.8 0 Calma -- -- 0 -- -- 88
2020-03-22 23:00:00 10.3 0 Calma 6 Este 0 -- -- 83
2020-03-22 22:00:00 11.2 0 Calma 15 Nordeste 0 -- -- 80
2020-03-22 21:00:00 12.3 8 Norte 18 Nordeste 0 -- -- 75
2020-03-22 20:00:00 13.9 3 Norte 24 Norte 0 -- -- 69
2020-03-22 19:00:00 16.6 2 Noroeste 14 Norte 0 -- -- 61
2020-03-22 18:00:00 17.8 3 Norte 19 Nordeste 0 -- -- 56
2020-03-22 17:00:00 17.1 5 Nordeste 16 Nordeste 0 -- -- 57
2020-03-22 16:00:00 16.5 7 Norte 17 Norte 0 -- -- 62
2020-03-22 15:00:00 15.6 0 Calma 9 Oeste 0 -- -- 69
2020-03-22 14:00:00 13.8 0 Calma 9 Sur 0 -- -- 72
2020-03-22 13:00:00 13 2 Este 10 Sudeste 0 -- -- 73
2020-03-22 12:00:00 12.8 0 Calma 12 Este 0 -- -- 74
2020-03-22 11:00:00 13.2 3 Nordeste 11 Nordeste 0 -- -- 76
2020-03-22 10:00:00 11.5 5 Nordeste 14 Nordeste 0 -- -- 85
2020-03-22 09:00:00 10.1 4 Nordeste 12 Nordeste 0 -- -- 93
2020-03-22 08:00:00 9.8 3 Nordeste 10 Norte 0 -- -- 95
2020-03-22 07:00:00 9.8 3 Nordeste 8 Norte 0 -- -- 96
2020-03-22 06:00:00 9.7 0 Calma -- -- 0 -- -- 96
2020-03-22 05:00:00 9.7 0 Calma 3 Este 0 -- -- 96
2020-03-22 04:00:00 9.6 0 Calma -- -- 0 -- -- 96
2020-03-22 03:00:00 10.6 0 Calma -- -- 0 -- -- 96
2020-03-22 02:00:00 10.6 0 Calma -- -- 0 -- -- 96
2020-03-22 01:00:00 10.7 0 Calma -- -- 0 -- -- 96
2020-03-22 00:00:00 10.7 0 Calma -- -- 0.1 -- -- 95
2020-03-21 23:00:00 10.9 0 Calma -- -- 0 -- -- 94
2020-03-21 22:00:00 11.3 0 Calma 24 Norte 8 -- -- 91
2020-03-21 21:00:00 12.8 2 Nordeste 8 Nordeste 0.4 -- -- 83
2020-03-21 20:00:00 13.5 0 Calma -- -- 0 -- -- 77
2020-03-21 19:00:00 14.4 0 Calma 6 Sudoeste 0 -- -- 70
2020-03-21 18:00:00 15.3 0 Calma 6 Sudoeste 0 -- -- 66
2020-03-21 17:00:00 15.7 0 Calma 11 Sur 0 -- -- 61
2020-03-21 16:00:00 14.7 0 Calma 11 Sur 0.1 -- -- 67
2020-03-21 15:00:00 13.9 2 Sudeste 13 Sudeste 0 -- -- 71
2020-03-21 14:00:00 13.9 0 Calma 6 Sudoeste 0 -- -- 79
2020-03-21 13:00:00 14.2 0 Calma 5 Sur 0 -- -- 79
2020-03-21 12:00:00 13.5 0 Calma 6 Sur 0 -- -- 82
2020-03-21 11:00:00 12.8 0 Calma 6 Sur 0 -- -- 89
2020-03-21 10:00:00 12 0 Calma 12 Nordeste 0 -- -- 96
2020-03-21 09:00:00 10.6 5 Nordeste 11 Nordeste 0 -- -- 97
2020-03-21 08:00:00 10.1 0 Calma -- -- 0 -- -- 96
2020-03-21 07:00:00 10.1 0 Calma 4 Nordeste 0 -- -- 96
2020-03-21 06:00:00 10.2 0 Calma 0 Calma 0.3 -- -- 96
2020-03-21 05:00:00 10.3 0 Calma 8 Sur 0 -- -- 96
2020-03-21 04:00:00 10.3 0 Calma 8 Nordeste 0 -- -- 96
2020-03-21 03:00:00 10.6 4 Nordeste 9 Nordeste 0.1 -- -- 96
2020-03-21 02:00:00 10.5 0 Calma 6 Nordeste 0.4 -- -- 96
2020-03-21 01:00:00 10.6 0 Calma -- -- 0.4 -- -- 96
2020-03-21 00:00:00 10.5 0 Calma -- -- 0 -- -- 96
2020-03-20 23:00:00 10.8 0 Calma -- -- 0 -- -- 95
2020-03-20 22:00:00 11.1 0 Calma -- -- 0 -- -- 94
2020-03-20 21:00:00 11.6 0 Calma -- -- 0 -- -- 94
2020-03-20 20:00:00 12.2 0 Calma -- -- 0.2 -- -- 93
2020-03-20 19:00:00 12.4 0 Calma 5 Este 2.5 -- -- 92
2020-03-20 18:00:00 13 0 Calma -- -- 0.1 -- -- 92
2020-03-20 17:00:00 12.5 0 Calma 10 Sudeste 1.6 -- -- 90
2020-03-20 16:00:00 13 0 Calma 8 Sudeste 2 -- -- 89
2020-03-20 15:00:00 14.2 0 Calma 8 Sur 0.1 -- -- 83
2020-03-20 14:00:00 15.1 0 Calma 8 Este 0 -- -- 78
2020-03-20 13:00:00 14.4 2 Este 9 Este 0 -- -- 79
2020-03-20 12:00:00 13.5 0 Calma 5 Sudeste 0 -- -- 89
2020-03-20 11:00:00 12.5 0 Calma -- -- 0 -- -- 96
2020-03-20 10:00:00 11.7 0 Calma -- -- 0 -- -- 96
2020-03-20 09:00:00 11.1 0 Calma 8 Este 0.1 -- -- 96
2020-03-20 08:00:00 11.2 0 Calma 5 Sudeste 0.9 -- -- 96
2020-03-20 07:00:00 11.3 0 Calma 8 Nordeste 1.9 -- -- 96
2020-03-20 06:00:00 11.5 0 Calma 5 Este 2.7 -- -- 96
2020-03-20 05:00:00 11.6 0 Calma -- -- 1.1 -- -- 96
2020-03-20 04:00:00 11.8 0 Calma 6 Nordeste 1.8 -- -- 96
2020-03-20 03:00:00 12 0 Calma 5 Este 2.9 -- -- 96
2020-03-20 02:00:00 12.1 0 Calma 2 Sudeste 0.5 -- -- 96
2020-03-20 01:00:00 12.3 0 Calma 13 Nordeste 1.1 -- -- 95
2020-03-20 00:00:00 12.5 4 Nordeste 16 Este 2.2 -- -- 93
2020-03-19 23:00:00 13.5 4 Nordeste 17 Norte 13 -- -- 91
2020-03-19 22:00:00 15.3 3 Norte 15 Norte 0 -- -- 76
2020-03-19 21:00:00 16.2 0 Calma 12 Oeste 0 -- -- 64
2020-03-19 20:00:00 17.4 2 Oeste 13 Noroeste 0 -- -- 59
2020-03-19 19:00:00 18.5 3 Oeste 17 Oeste 0 -- -- 55
2020-03-19 18:00:00 19.8 5 Oeste 14 Oeste 0 -- -- 47
2020-03-19 17:00:00 21.7 0 Calma 15 Noroeste 0 -- -- 44
2020-03-19 16:00:00 22.3 2 Oeste 11 Oeste 0 -- -- 44
2020-03-19 15:00:00 22.2 2 Oeste 13 Sudoeste 0 -- -- 47
2020-03-19 14:00:00 21.3 2 Sur 13 Sur 0 -- -- 48
2020-03-19 13:00:00 20.3 0 Calma 9 Sudoeste 0 -- -- 51
2020-03-19 12:00:00 17.6 0 Calma 5 Este 0 -- -- 60
2020-03-19 11:00:00 14 0 Calma 0 Calma 0 -- -- 80
2020-03-19 10:00:00 10.3 0 Calma -- -- 0 -- -- 95
2020-03-19 09:00:00 7.4 0 Calma -- -- 0 -- -- 95
2020-03-19 08:00:00 6.8 0 Calma -- -- 0 -- -- 94
2020-03-19 07:00:00 7.1 0 Calma -- -- 0 -- -- 93
2020-03-19 06:00:00 7.6 0 Calma -- -- 0 -- -- 91
2020-03-19 05:00:00 8.2 0 Calma 6 Norte 0 -- -- 89
2020-03-19 04:00:00 9.1 0 Calma 6 Norte 0 -- -- 88
2020-03-19 03:00:00 9.6 0 Calma 6 Norte 0 -- -- 87
2020-03-19 02:00:00 10.3 0 Calma 7 Nordeste 0 -- -- 83
2020-03-19 01:00:00 11 0 Calma 6 Nordeste 0 -- -- 81
2020-03-19 00:00:00 11.8 0 Calma 11 Nordeste 0 -- -- 76
2020-03-18 23:00:00 12.4 0 Calma 4 Norte 0 -- -- 71
2020-03-18 22:00:00 13.7 0 Calma 3 Norte 0 -- -- 67
2020-03-18 21:00:00 15.7 0 Calma -- -- 0 -- -- 59
2020-03-18 20:00:00 18.8 0 Calma -- -- 0 -- -- 49
2020-03-18 19:00:00 22.3 0 Calma 0 Calma 0 -- -- 39
2020-03-18 18:00:00 23.5 0 Calma 5 Oeste 0 -- -- 36
2020-03-18 17:00:00 23.7 0 Calma 9 Sur 0 -- -- 37
2020-03-18 16:00:00 22.7 0 Calma 10 Sur 0 -- -- 39
2020-03-18 15:00:00 22 0 Calma 12 Sudoeste 0 -- -- 47
2020-03-18 14:00:00 20.7 2 Sudoeste 11 Sur 0 -- -- 50
2020-03-18 13:00:00 18.8 0 Calma 0 Calma 0 -- -- 56
2020-03-18 12:00:00 16.7 0 Calma 6 Sur 0 -- -- 63
2020-03-18 11:00:00 13.3 0 Calma 3 Sudoeste 0 -- -- 81
2020-03-18 10:00:00 9.2 0 Calma -- -- 0 -- -- 98
2020-03-18 09:00:00 5.1 0 Calma -- -- 0 -- -- 97
2020-03-18 08:00:00 3.8 0 Calma -- -- 0 -- -- 96
2020-03-18 07:00:00 4 0 Calma -- -- 0 -- -- 96
2020-03-18 06:00:00 4.5 0 Calma -- -- 0 -- -- 95
2020-03-18 05:00:00 4.9 0 Calma -- -- 0 -- -- 95
2020-03-18 04:00:00 5.4 0 Calma -- -- 0 -- -- 94
2020-03-18 03:00:00 6.1 0 Calma -- -- 0 -- -- 92
2020-03-18 02:00:00 7 0 Calma 3 Nordeste 0 -- -- 91
2020-03-18 01:00:00 7.9 0 Calma -- -- 0 -- -- 90
2020-03-18 00:00:00 8.8 0 Calma -- -- 0 -- -- 86
2020-03-17 23:00:00 10.4 0 Calma -- -- 0 -- -- 80
2020-03-17 22:00:00 12.3 0 Calma 6 Este 0 -- -- 73
2020-03-17 21:00:00 14.6 0 Calma 13 Nordeste 0 -- -- 62
2020-03-17 20:00:00 16.3 2 Nordeste 14 Nordeste 0 -- -- 55
2020-03-17 19:00:00 18.2 6 Nordeste 18 Nordeste 0 -- -- 48
2020-03-17 18:00:00 20.6 5 Nordeste 17 Nordeste 0 -- -- 42
2020-03-17 17:00:00 21.1 8 Nordeste 20 Nordeste 0 -- -- 41
2020-03-17 16:00:00 20.9 9 Nordeste 26 Este 0 -- -- 41
2020-03-17 15:00:00 19.8 6 Este 26 Sudeste 0 -- -- 41
2020-03-17 14:00:00 19 7 Este 19 Este 0 -- -- 42
2020-03-17 13:00:00 17.6 5 Este 16 Sur 0 -- -- 47
2020-03-17 12:00:00 14 0 Calma 9 Este 0 -- -- 57
2020-03-17 11:00:00 10.7 0 Calma 8 Sudeste 0 -- -- 64
2020-03-17 10:00:00 7.5 0 Calma 4 Sudoeste 0 -- -- 89
2020-03-17 09:00:00 2.2 0 Calma -- -- 0 -- -- 95
2020-03-17 08:00:00 1.3 0 Calma 0 Calma 0 -- -- 93
2020-03-17 07:00:00 1.8 0 Calma 4 Sudeste 0 -- -- 91
2020-03-17 06:00:00 2.6 0 Calma -- -- 0 -- -- 89
2020-03-17 05:00:00 3.9 0 Calma 8 Nordeste 0 -- -- 83
2020-03-17 04:00:00 4.6 0 Calma 10 Oeste 0 -- -- 79
2020-03-17 03:00:00 5.4 0 Calma 19 Norte 0 -- -- 73
2020-03-17 02:00:00 5.9 4 Norte 19 Noroeste 0 -- -- 71
2020-03-17 01:00:00 6.4 6 Nordeste 15 Nordeste 0 -- -- 68
2020-03-17 00:00:00 6.7 3 Norte 26 Norte 0 -- -- 65
2020-03-16 23:00:00 7.3 8 Nordeste 36 Nordeste 0 -- -- 63
2020-03-16 22:00:00 7 6 Norte 31 Norte 0 -- -- 63
2020-03-16 21:00:00 7.6 6 Nordeste 32 Nordeste 0 -- -- 64
2020-03-16 20:00:00 8.4 9 Norte 28 Norte 0 -- -- 61
2020-03-16 19:00:00 10.3 10 Norte 41 Norte 0 -- -- 56
2020-03-16 18:00:00 10.7 15 Nordeste 41 Nordeste 0 -- -- 55
2020-03-16 17:00:00 12.9 13 Nordeste 39 Nordeste 0 -- -- 45
2020-03-16 16:00:00 12.6 15 Norte 36 Norte 0 -- -- 47
2020-03-16 15:00:00 12.8 13 Norte 58 Nordeste 0 -- -- 50
2020-03-16 14:00:00 12.6 13 Nordeste 39 Nordeste 0 -- -- 48
2020-03-16 13:00:00 10.1 12 Norte 36 Nordeste 0 -- -- 60
2020-03-16 12:00:00 10.4 9 Norte 26 Nordeste 0 -- -- 64
2020-03-16 11:00:00 7.9 10 Norte 30 Norte 0 -- -- 74
2020-03-16 10:00:00 7.8 8 Norte 26 Nordeste 0 -- -- 80
2020-03-16 09:00:00 5.4 3 Noroeste 14 Norte 0 -- -- 97
2020-03-16 08:00:00 4 0 Calma 10 Noroeste 0 -- -- 98
2020-03-16 07:00:00 3.2 0 Calma 8 Noroeste 0 -- -- 98
2020-03-16 06:00:00 3.4 0 Calma 8 Sur 0 -- -- 98
2020-03-16 05:00:00 2.6 0 Calma 12 Nordeste 0 -- -- 98
2020-03-16 04:00:00 3.1 0 Calma 8 Este 0 -- -- 98
2020-03-16 03:00:00 2 0 Calma -- -- 0 -- -- 97
2020-03-16 02:00:00 1.8 0 Calma -- -- 0 -- -- 96
2020-03-16 01:00:00 2.7 0 Calma 4 Sudoeste 0 -- -- 95
2020-03-16 00:00:00 3.6 0 Calma 17 Noroeste 0.2 -- -- 94
2020-03-15 23:00:00 3.5 2 Noroeste 9 Noroeste 0.4 -- -- 94
2020-03-15 22:00:00 3.9 0 Calma 5 Sudeste 0 -- -- 92
2020-03-15 21:00:00 4.1 0 Calma 10 Noroeste 0 -- -- 88
2020-03-15 20:00:00 5.3 0 Calma 13 Norte 0.5 -- -- 84
2020-03-15 19:00:00 7.5 0 Calma 7 Noroeste 0 -- -- 81
2020-03-15 18:00:00 6.4 0 Calma 16 Noroeste 0.1 -- -- 87
2020-03-15 17:00:00 6.4 5 Noroeste 17 Oeste 0.3 -- -- 87
2020-03-15 16:00:00 6.9 6 Norte 22 Noroeste 0.3 -- -- 87
2020-03-15 15:00:00 7.5 7 Noroeste 21 Noroeste 0.8 -- -- 88
2020-03-15 14:00:00 8.1 10 Noroeste 31 Noroeste 1.6 -- -- 85
2020-03-15 13:00:00 11.2 3 Oeste 17 Sudoeste 0 -- -- 73
2020-03-15 12:00:00 11.4 2 Sudeste 13 Sudeste 0 -- -- 78
2020-03-15 11:00:00 9.6 0 Calma 6 Nordeste 0 -- -- 94
2020-03-15 10:00:00 5.7 0 Calma 0 Calma 0 -- -- 98
2020-03-15 09:00:00 4 0 Calma 3 Norte 0 -- -- 98
2020-03-15 08:00:00 1.9 0 Calma 4 Sudeste 0 -- -- 98
2020-03-15 07:00:00 1.1 0 Calma -- -- 0 -- -- 96
2020-03-15 06:00:00 1.7 0 Calma 2 Nordeste 0 -- -- 95
2020-03-15 05:00:00 2.1 0 Calma -- -- 0 -- -- 94
2020-03-15 04:00:00 3.1 0 Calma -- -- 0 -- -- 92
2020-03-15 03:00:00 3.9 0 Calma -- -- 0 -- -- 91
2020-03-15 02:00:00 4.8 0 Calma -- -- 0 -- -- 89
2020-03-15 01:00:00 5.9 0 Calma -- -- 0 -- -- 88
2020-03-15 00:00:00 6.8 0 Calma 2 Norte 0 -- -- 83
2020-03-14 23:00:00 8 0 Calma -- -- 0 -- -- 78
2020-03-14 22:00:00 9.9 0 Calma 9 Nordeste 0 -- -- 69
2020-03-14 21:00:00 12.1 0 Calma 4 Norte 0 -- -- 56
2020-03-14 20:00:00 15.2 0 Calma -- -- 0 -- -- 43
2020-03-14 19:00:00 19.3 0 Calma 5 Sudoeste 0 -- -- 35
2020-03-14 18:00:00 20.4 0 Calma 6 Sur 0 -- -- 36
2020-03-14 17:00:00 19.7 0 Calma 8 Sudoeste 0 -- -- 40
2020-03-14 16:00:00 18.2 0 Calma 6 Sudoeste 0 -- -- 44
2020-03-14 15:00:00 16.5 0 Calma 8 Sudoeste 0 -- -- 50
2020-03-14 14:00:00 15 0 Calma 7 Oeste 0 -- -- 53
2020-03-14 13:00:00 12.2 0 Calma 11 Oeste 0 -- -- 61
2020-03-14 12:00:00 9.6 0 Calma 8 Este 0 -- -- 70
2020-03-14 11:00:00 7 0 Calma 8 Este 0 -- -- 83
2020-03-14 10:00:00 5.7 0 Calma 6 Noroeste 0 -- -- 94
2020-03-14 09:00:00 4.4 0 Calma 8 Nordeste 0 -- -- 95
2020-03-14 08:00:00 3.6 2 Nordeste 9 Nordeste 0 -- -- 96
2020-03-14 07:00:00 3.8 0 Calma -- -- 0 -- -- 97
2020-03-14 06:00:00 2.8 0 Calma 0 Calma 0 -- -- 97
2020-03-14 05:00:00 1.9 0 Calma -- -- 0 -- -- 96
2020-03-14 04:00:00 1.9 0 Calma -- -- 0 -- -- 95
2020-03-14 03:00:00 2.7 0 Calma -- -- 0 -- -- 93
2020-03-14 02:00:00 3.7 0 Calma -- -- 0 -- -- 92
2020-03-14 01:00:00 4.7 0 Calma 6 Este 0 -- -- 91
2020-03-14 00:00:00 6 0 Calma 3 Nordeste 0 -- -- 85
2020-03-13 23:00:00 7.5 0 Calma 14 Nordeste 0 -- -- 81
2020-03-13 22:00:00 9.2 5 Nordeste 18 Norte 0 -- -- 75
2020-03-13 21:00:00 9.6 5 Nordeste 12 Norte 0 -- -- 73
2020-03-13 20:00:00 11.4 3 Norte 18 Este 0 -- -- 65
2020-03-13 19:00:00 14.7 5 Norte 14 Noroeste 0 -- -- 58
2020-03-13 18:00:00 15.3 6 Nordeste 20 Norte 0 -- -- 56
2020-03-13 17:00:00 16.9 8 Norte 25 Norte 0 -- -- 55
2020-03-13 16:00:00 15.8 9 Norte 23 Norte 0 -- -- 57
2020-03-13 15:00:00 16.5 2 Este 12 Nordeste 0 -- -- 59
2020-03-13 14:00:00 14.3 3 Nordeste 18 Nordeste 0 -- -- 64
2020-03-13 13:00:00 13.8 4 Nordeste 10 Nordeste 0 -- -- 67
2020-03-13 12:00:00 12.4 0 Calma 9 Nordeste 0 -- -- 70
2020-03-13 11:00:00 11.3 0 Calma 4 Sur 0 -- -- 77
2020-03-13 10:00:00 9.6 0 Calma 0 Calma 0 -- -- 84
2020-03-13 09:00:00 8.8 0 Calma -- -- 0 -- -- 85
2020-03-13 08:00:00 8.5 0 Calma -- -- 0 -- -- 84
2020-03-13 07:00:00 8.8 0 Calma 10 Nordeste 0 -- -- 81
2020-03-13 06:00:00 8.8 0 Calma 11 Nordeste 0 -- -- 81
2020-03-13 05:00:00 8.7 0 Calma 14 Norte 0 -- -- 81
2020-03-13 04:00:00 8.4 3 Norte 16 Norte 0 -- -- 83
2020-03-13 03:00:00 8.3 4 Norte 15 Norte 0 -- -- 84
2020-03-13 02:00:00 7.9 3 Norte 16 Nordeste 0 -- -- 85
2020-03-13 01:00:00 7.7 0 Calma 15 Nordeste 0 -- -- 84
2020-03-13 00:00:00 8 0 Calma 11 Norte 0 -- -- 84
2020-03-12 23:00:00 8.8 2 Nordeste 14 Nordeste 0 -- -- 81
2020-03-12 22:00:00 8.9 0 Calma 12 Nordeste 0 -- -- 79
2020-03-12 21:00:00 9.6 3 Nordeste 30 Nordeste 0 -- -- 77
2020-03-12 20:00:00 10.9 12 Nordeste 31 Nordeste 0 -- -- 72
2020-03-12 19:00:00 13.4 6 Norte 33 Nordeste 0 -- -- 65
2020-03-12 18:00:00 15.7 9 Norte 30 Nordeste 0 -- -- 58
2020-03-12 17:00:00 15.5 12 Nordeste 27 Nordeste 0 -- -- 53
2020-03-12 16:00:00 16.9 9 Nordeste 26 Nordeste 0 -- -- 51
2020-03-12 15:00:00 16.6 9 Nordeste 27 Nordeste 0 -- -- 51
2020-03-12 14:00:00 18.1 8 Nordeste 19 Norte 0 -- -- 51
2020-03-12 13:00:00 17.7 5 Nordeste 20 Nordeste 0 -- -- 53
2020-03-12 12:00:00 16.9 10 Norte 22 Norte 0 -- -- 55
2020-03-12 11:00:00 15 5 Nordeste 20 Nordeste 0 -- -- 62
2020-03-12 10:00:00 13.1 5 Nordeste 16 Este 0 -- -- 73
2020-03-12 09:00:00 10 0 Calma -- -- 0 -- -- 87
2020-03-12 08:00:00 10.6 0 Calma 17 Norte 0 -- -- 85
2020-03-12 07:00:00 11.5 7 Norte 17 Norte 0 -- -- 88
2020-03-12 06:00:00 11.6 0 Calma 9 Nordeste 0 -- -- 92
2020-03-12 05:00:00 10.6 0 Calma -- -- 0 -- -- 94
2020-03-12 04:00:00 10.2 0 Calma 5 Nordeste 0 -- -- 94
2020-03-12 03:00:00 9.8 0 Calma -- -- 0 -- -- 93
2020-03-12 02:00:00 10.4 0 Calma 0 Calma 0 -- -- 93
2020-03-12 01:00:00 10.6 0 Calma 3 Nordeste 0 -- -- 92
2020-03-12 00:00:00 11.5 0 Calma -- -- 0 -- -- 90
2020-03-11 23:00:00 12.7 0 Calma 8 Norte 0 -- -- 87
2020-03-11 22:00:00 13.9 0 Calma 13 Nordeste 0 -- -- 83
2020-03-11 21:00:00 15.1 0 Calma 15 Noroeste 0 -- -- 77
2020-03-11 20:00:00 16.9 4 Norte 15 Norte 0 -- -- 67
2020-03-11 19:00:00 20.7 3 Oeste 14 Oeste 0 -- -- 45
2020-03-11 18:00:00 21.8 7 Oeste 17 Oeste 0 -- -- 37
2020-03-11 17:00:00 23 3 Sudoeste 15 Sudoeste 0 -- -- 37
2020-03-11 16:00:00 22.7 4 Oeste 15 Oeste 0 -- -- 38
2020-03-11 15:00:00 22.1 6 Oeste 20 Sudoeste 0 -- -- 39
2020-03-11 14:00:00 20.7 0 Calma 14 Oeste 0 -- -- 50
2020-03-11 13:00:00 18 0 Calma 5 Noroeste 0 -- -- 61
2020-03-11 12:00:00 13.9 0 Calma 2 Sur 0 -- -- 84
2020-03-11 11:00:00 10.5 0 Calma 3 Este 0 -- -- 97
2020-03-11 10:00:00 7.8 0 Calma 3 Sudeste 0 -- -- 98
2020-03-11 09:00:00 4.6 0 Calma -- -- 0 -- -- 97
2020-03-11 08:00:00 4.2 0 Calma -- -- 0 -- -- 96
2020-03-11 07:00:00 4.3 0 Calma -- -- 0 -- -- 95
2020-03-11 06:00:00 4.8 0 Calma -- -- 0 -- -- 95
2020-03-11 05:00:00 5.5 0 Calma -- -- 0 -- -- 95
2020-03-11 04:00:00 6 0 Calma -- -- 0 -- -- 94
2020-03-11 03:00:00 6.4 0 Calma -- -- 0 -- -- 93
2020-03-11 02:00:00 7 0 Calma -- -- 0 -- -- 92
2020-03-11 01:00:00 7.9 0 Calma -- -- 0 -- -- 90
2020-03-11 00:00:00 9 0 Calma -- -- 0 -- -- 88
2020-03-10 23:00:00 9.9 0 Calma -- -- 0 -- -- 85
2020-03-10 22:00:00 11.5 0 Calma 6 Noroeste 0 -- -- 81
2020-03-10 21:00:00 13.4 0 Calma 10 Noroeste 0 -- -- 76
2020-03-10 20:00:00 15 5 Noroeste 16 Oeste 0 -- -- 68
2020-03-10 19:00:00 18 5 Oeste 15 Oeste 0 -- -- 54
2020-03-10 18:00:00 19.9 3 Oeste 18 Noroeste 0 -- -- 47
2020-03-10 17:00:00 20.8 4 Oeste 19 Noroeste 0 -- -- 45
2020-03-10 16:00:00 20.3 7 Oeste 22 Noroeste 0 -- -- 43
2020-03-10 15:00:00 19.7 3 Sudoeste 16 Oeste 0 -- -- 44
2020-03-10 14:00:00 18.1 5 Sudoeste 13 Sudoeste 0 -- -- 44
2020-03-10 13:00:00 15.7 0 Calma 6 Sudoeste 0 -- -- 61
2020-03-10 12:00:00 12.1 0 Calma 8 Sur 0 -- -- 80
2020-03-10 11:00:00 9.1 0 Calma 6 Sudoeste 0 -- -- 94
2020-03-10 10:00:00 5.9 0 Calma -- -- 0 -- -- 97
2020-03-10 09:00:00 3.1 0 Calma 3 Nordeste 0 -- -- 97
2020-03-10 08:00:00 2.7 0 Calma -- -- 0 -- -- 97
2020-03-10 07:00:00 3 0 Calma -- -- 0 -- -- 96
2020-03-10 06:00:00 3.4 0 Calma -- -- 0 -- -- 95
2020-03-10 05:00:00 3.9 0 Calma 3 Norte 0 -- -- 95
2020-03-10 04:00:00 4.4 0 Calma -- -- 0 -- -- 94
2020-03-10 03:00:00 4.9 0 Calma -- -- 0 -- -- 93
2020-03-10 02:00:00 5.6 0 Calma -- -- 0 -- -- 92
2020-03-10 01:00:00 6.4 0 Calma -- -- 0 -- -- 91
2020-03-10 00:00:00 7.1 0 Calma -- -- 0 -- -- 89